createdAt,value
2023-07-19T00:06:45.757Z,18.80
2023-07-19T00:16:44.766Z,18.70
2023-07-19T00:26:44.273Z,18.60
2023-07-19T00:36:42.723Z,18.50
2023-07-19T00:46:42.619Z,18.20
2023-07-19T00:56:41.746Z,18.20
2023-07-19T01:06:40.757Z,18.30
2023-07-19T01:16:39.840Z,18.30
2023-07-19T01:26:38.934Z,18.00
2023-07-19T01:36:37.783Z,17.90
2023-07-19T01:46:38.673Z,17.80
2023-07-19T01:56:37.818Z,17.50
2023-07-19T02:06:37.028Z,17.50
2023-07-19T02:16:36.029Z,17.40
2023-07-19T02:26:34.865Z,17.20
2023-07-19T02:36:34.640Z,17.10
2023-07-19T02:46:33.861Z,16.90
2023-07-19T02:56:32.826Z,16.80
2023-07-19T03:06:31.808Z,16.60
2023-07-19T03:16:30.835Z,16.60
2023-07-19T03:26:29.919Z,16.70
2023-07-19T03:36:28.894Z,16.90
2023-07-19T03:46:28.125Z,17.00
2023-07-19T03:56:27.302Z,17.00
2023-07-19T04:06:25.962Z,17.10
2023-07-19T04:16:25.194Z,17.10
2023-07-19T04:26:24.822Z,17.20
2023-07-19T04:36:24.306Z,17.50
2023-07-19T04:46:23.477Z,17.70
2023-07-19T04:56:22.108Z,17.90
2023-07-19T05:06:21.419Z,18.20
2023-07-19T05:16:20.629Z,18.60
2023-07-19T05:26:19.943Z,18.90
2023-07-19T05:36:18.930Z,19.10
2023-07-19T05:46:19.481Z,19.40
2023-07-19T05:56:18.949Z,19.80
2023-07-19T06:06:17.988Z,20.70
2023-07-19T06:16:16.947Z,21.10
2023-07-19T06:26:16.021Z,21.30
2023-07-19T06:36:14.954Z,21.20
2023-07-19T06:46:14.102Z,20.90
2023-07-19T06:56:13.107Z,21.10
2023-07-19T07:06:11.970Z,21.50
2023-07-19T07:16:13.083Z,21.70
2023-07-19T07:26:12.538Z,22.30
2023-07-19T07:36:11.007Z,22.30
2023-07-19T07:46:10.041Z,22.10
2023-07-19T07:56:09.023Z,22.10
2023-07-19T08:06:08.003Z,22.30
2023-07-19T08:16:08.401Z,22.20
2023-07-19T08:26:07.127Z,21.90
2023-07-19T08:36:06.067Z,21.80
2023-07-19T08:46:05.107Z,22.60
2023-07-19T08:56:04.067Z,23.30
2023-07-19T09:06:03.044Z,23.60
2023-07-19T09:16:02.047Z,23.00
2023-07-19T09:26:01.141Z,24.00
2023-07-19T09:36:00.111Z,23.80
2023-07-19T09:45:59.090Z,23.30
2023-07-19T09:55:58.138Z,24.00
2023-07-19T10:05:57.791Z,24.90
2023-07-19T10:15:57.098Z,26.40
2023-07-19T10:25:56.104Z,27.20
2023-07-19T10:35:55.141Z,27.50
2023-07-19T10:45:54.187Z,27.30
2023-07-19T10:55:54.492Z,28.00
2023-07-19T11:05:54.144Z,27.80
2023-07-19T11:15:53.640Z,27.80
2023-07-19T11:25:52.255Z,27.90
2023-07-19T11:35:51.230Z,27.90
2023-07-19T11:45:50.222Z,27.60
2023-07-19T11:55:49.210Z,26.70
2023-07-19T12:05:48.194Z,27.20
2023-07-19T12:15:47.209Z,27.20
2023-07-19T12:25:46.225Z,27.30
2023-07-19T12:35:45.225Z,27.90
2023-07-19T12:45:44.574Z,27.50
2023-07-19T12:55:43.260Z,27.00
2023-07-19T13:05:42.260Z,26.80
2023-07-19T13:15:41.282Z,27.70
2023-07-19T13:25:40.383Z,27.20
2023-07-19T13:45:40.811Z,28.20
2023-07-19T13:55:39.450Z,28.40
2023-07-19T14:05:38.316Z,27.80
2023-07-19T14:15:37.299Z,27.80
2023-07-19T14:25:36.346Z,27.40
2023-07-19T14:35:35.327Z,27.40
2023-07-19T14:45:35.538Z,27.30
2023-07-19T14:55:34.364Z,27.70
2023-07-19T15:05:33.346Z,28.20
2023-07-19T15:15:32.344Z,27.60
2023-07-19T15:25:31.362Z,27.40
2023-07-19T15:35:30.412Z,27.90
2023-07-19T15:45:29.409Z,27.50
2023-07-19T15:55:28.418Z,26.90
2023-07-19T16:05:27.407Z,28.10
2023-07-19T16:15:26.406Z,26.80
2023-07-19T16:25:25.424Z,26.00
2023-07-19T16:35:24.420Z,25.30
2023-07-19T16:45:24.714Z,24.80
2023-07-19T16:55:25.113Z,23.30
2023-07-19T17:05:24.427Z,22.70
2023-07-19T17:15:23.531Z,22.90
2023-07-19T17:25:22.449Z,22.90
2023-07-19T17:35:21.437Z,24.10
2023-07-19T17:45:20.447Z,24.40
2023-07-19T17:55:19.839Z,24.20
2023-07-19T18:05:18.452Z,23.90
2023-07-19T18:15:17.761Z,23.50
2023-07-19T18:25:16.486Z,23.30
2023-07-19T18:35:15.976Z,23.10
2023-07-19T18:45:14.514Z,22.90
2023-07-19T18:55:13.731Z,22.70
2023-07-19T19:05:12.549Z,22.40
2023-07-19T19:15:12.817Z,22.10
2023-07-19T19:25:11.529Z,21.90
2023-07-19T19:35:10.621Z,21.80
2023-07-19T19:45:09.653Z,21.50
2023-07-19T19:55:08.584Z,21.30
2023-07-19T20:05:07.580Z,21.10
2023-07-19T20:15:06.544Z,21.00
2023-07-19T20:25:17.401Z,21.00
2023-07-19T20:35:08.687Z,20.80
2023-07-19T20:45:13.233Z,20.60
2023-07-19T20:55:08.624Z,20.60
2023-07-19T21:05:07.670Z,20.60
2023-07-19T21:15:06.705Z,20.50
2023-07-19T21:35:06.599Z,20.30
2023-07-19T21:45:05.648Z,20.30
2023-07-19T21:55:04.626Z,20.20
2023-07-19T22:05:03.883Z,20.00
2023-07-19T22:15:08.489Z,19.90
2023-07-19T22:25:03.635Z,19.80
2023-07-19T22:35:02.735Z,19.80
2023-07-19T22:45:01.753Z,19.80
2023-07-19T22:55:00.644Z,19.90
2023-07-19T23:04:59.643Z,20.00
2023-07-19T23:14:58.655Z,20.10
2023-07-19T23:24:57.655Z,20.00
2023-07-19T23:34:56.669Z,19.70
2023-07-19T23:44:56.691Z,19.40
2023-07-19T23:54:55.716Z,19.00
